Date,TemperatureHighF,TemperatureAvgF,TemperatureLowF,DewpointHighF,DewpointAvgF,DewpointLowF,HumidityHigh,HumidityAvg,HumidityLow,PressureMaxIn,PressureMinIn,WindSpeedMaxMPH,WindSpeedAvgMPH,GustSpeedMaxMPH,PrecipitationSumIn
2013-1-1,46.0,38.0,26.0,29.0,18.4,4.0,100,53,19,0.00,40.00,18,9,41,0.00
2013-1-2,57.0,43.2,25.0,16.0,7.6,2.0,67,26,12,0.00,40.00,15,7,30,0.00
2013-1-3,56.0,38.3,24.0,17.0,9.9,4.0,71,36,13,0.00,40.00,12,5,23,0.00
2013-1-4,57.0,40.0,22.0,14.0,4.9,-2.0,63,29,9,0.00,40.00,8,3,15,0.00
2013-1-5,61.0,38.6,20.0,17.0,8.6,-4.0,75,40,7,0.00,40.00,7,2,12,0.00
2013-1-6,46.0,36.2,24.0,40.0,30.6,14.0,100,81,55,0.00,40.00,10,4,20,0.00
2013-1-7,54.0,42.1,33.0,39.0,28.6,15.0,100,66,22,0.00,40.00,10,3,23,0.00
2013-1-8,66.0,44.8,27.0,30.0,23.7,17.0,84,50,17,0.00,40.00,9,3,15,0.00
2013-1-9,68.0,47.3,32.0,45.0,32.8,24.0,93,64,19,0.00,40.00,10,3,15,0.00
2013-1-10,43.0,38.5,32.0,43.0,36.5,30.0,100,93,72,0.00,40.00,17,9,30,0.00
2013-1-11,41.0,32.7,24.0,31.0,23.1,13.0,100,72,33,0.00,40.00,10,4,19,0.00
2013-1-12,43.0,31.7,20.0,28.0,19.9,8.0,100,70,25,0.00,40.00,8,3,17,0.00
2013-1-13,44.0,33.2,21.0,26.0,18.4,6.0,100,60,26,0.00,40.00,8,4,18,0.00
2013-1-14,45.0,34.2,27.0,16.0,-2.3,-12.0,56,23,9,0.00,40.00,11,6,18,0.00
2013-1-15,48.0,40.1,28.0,11.0,3.5,-8.0,34,22,17,0.00,40.00,12,8,23,0.00
2013-1-16,59.0,49.3,35.0,22.0,15.7,12.0,55,27,19,0.00,40.00,18,7,37,0.00
2013-1-17,64.0,55.5,47.0,14.0,11.4,8.0,25,17,13,0.00,40.00,18,10,34,0.00
2013-1-18,65.0,55.9,43.0,15.0,11.7,9.0,28,18,13,0.00,40.00,15,7,28,0.00
2013-1-19,66.0,51.4,37.0,16.0,10.8,7.0,41,21,11,0.00,40.00,10,4,21,0.00
2013-1-20,68.0,48.7,31.0,20.0,9.0,1.0,48,24,9,0.00,40.00,11,4,19,0.00
2013-1-21,69.0,51.5,29.0,12.0,2.4,-4.0,46,17,7,0.00,40.00,11,5,22,0.00
2013-1-22,75.0,50.6,30.0,21.0,7.4,-1.0,47,20,6,0.00,40.00,10,3,20,0.00
2013-1-23,71.0,54.7,37.0,39.0,28.9,20.0,63,40,19,0.00,40.00,10,3,17,0.00
2013-1-24,61.0,54.3,49.0,56.0,48.4,38.0,100,81,59,0.00,40.00,8,2,18,0.00
2013-1-25,58.0,53.0,50.0,54.0,50.0,43.0,100,91,66,0.00,40.00,9,3,18,0.00
2013-1-26,54.0,50.8,48.0,54.0,50.8,48.0,100,100,97,0.00,40.00,9,4,15,0.00
2013-1-27,49.0,44.3,38.0,49.0,44.0,36.0,100,99,93,0.00,40.00,12,7,21,0.00
2013-1-28,44.0,38.4,31.0,38.0,34.1,24.0,100,86,49,0.00,40.00,12,6,22,0.00
2013-1-29,50.0,38.7,27.0,42.0,35.1,27.0,100,89,55,0.00,40.00,11,4,19,0.00
2013-1-30,62.0,51.2,34.0,39.0,27.2,21.0,100,44,24,0.00,40.00,15,8,32,0.00
2013-1-31,64.0,55.5,37.0,29.0,26.3,23.0,69,34,23,0.00,40.00,12,7,26,0.00
2013-2-1,71.0,50.2,31.0,33.0,26.4,17.0,88,48,13,0.00,40.00,9,2,14,0.00
2013-2-2,71.0,54.8,39.0,36.0,25.6,16.0,69,38,12,0.00,40.00,8,3,17,0.00
2013-2-3,63.0,53.6,41.0,45.0,41.1,34.0,100,65,37,0.00,40.00,9,3,18,0.00
2013-2-4,67.0,49.1,33.0,46.0,36.9,26.0,100,71,22,0.00,40.00,10,3,17,0.00
2013-2-5,65.0,47.3,32.0,49.0,38.3,30.0,100,77,30,0.00,40.00,10,3,16,0.00
2013-2-6,56.0,43.6,34.0,43.0,39.8,32.0,100,88,56,0.00,40.00,7,3,13,0.00
2013-2-7,62.0,44.4,28.0,47.0,33.5,17.0,100,75,17,0.00,40.00,9,4,16,0.00
2013-2-8,41.0,37.1,32.0,40.0,36.1,32.0,100,96,74,0.00,40.00,14,9,30,0.00
2013-2-9,43.0,35.7,31.0,37.0,33.9,30.0,100,93,68,0.00,40.00,9,4,15,0.00
2013-2-10,42.0,36.1,28.0,37.0,32.6,28.0,100,88,60,0.00,40.00,9,4,15,0.00
2013-2-11,47.0,36.1,26.0,36.0,27.0,14.0,100,73,30,0.00,40.00,7,2,14,0.00
2013-2-12,55.0,37.2,21.0,21.0,15.1,3.0,84,48,13,0.00,40.00,8,3,17,0.00
2013-2-13,60.0,41.5,22.0,32.0,22.6,14.0,90,55,18,0.00,40.00,9,3,16,0.00
2013-2-14,65.0,48.2,27.0,28.0,22.4,17.0,93,45,18,0.00,40.00,11,5,24,0.00
2013-2-15,63.0,57.7,54.0,19.0,12.1,3.0,23,17,11,0.00,40.00,17,10,37,0.00
2013-2-16,68.0,57.5,36.0,22.0,8.6,-1.0,53,17,7,0.00,40.00,13,7,34,0.00
2013-2-17,61.0,42.7,26.0,33.0,21.2,11.0,81,49,14,0.00,40.00,10,4,18,0.00
2013-2-18,63.0,40.9,23.0,44.0,27.8,14.0,100,68,15,0.00,40.00,10,3,18,0.00
2013-2-19,40.0,38.3,35.0,40.0,37.3,34.0,100,96,84,0.00,40.00,14,6,28,0.00
2013-2-20,41.0,35.4,28.0,37.0,32.0,27.0,100,89,59,0.00,40.00,17,8,30,0.00
2013-2-21,43.0,34.0,26.0,40.0,32.9,26.0,100,96,71,0.00,40.00,8,2,14,0.00
2013-2-22,56.0,38.9,22.0,38.0,25.6,14.0,100,68,22,0.00,40.00,7,2,13,0.00
2013-2-23,58.0,40.8,26.0,34.0,27.3,22.0,99,66,26,0.00,40.00,11,4,19,0.00
2013-2-24,51.0,40.5,26.0,29.0,6.7,-4.0,100,34,12,0.00,40.00,16,6,29,0.00
2013-2-25,60.0,42.0,25.0,19.0,10.5,1.0,60,32,12,0.00,40.00,10,4,17,0.00
2013-2-26,60.0,42.5,21.0,20.0,12.4,7.0,78,37,13,0.00,40.00,14,5,25,0.00
2013-2-27,63.0,49.3,34.0,14.0,5.8,0.0,36,18,10,0.00,40.00,13,7,25,0.00
2013-2-28,64.0,52.0,28.0,14.0,4.9,-1.0,51,17,9,0.00,40.00,15,6,30,0.00
2013-3-1,70.0,62.0,49.0,16.0,10.2,5.0,25,13,10,0.00,40.00,17,9,37,0.00
2013-3-2,78.0,58.3,38.0,27.0,18.2,9.0,63,25,8,0.00,40.00,9,4,18,0.00
2013-3-3,67.0,49.2,31.0,33.0,24.3,15.0,81,45,13,0.00,40.00,12,5,20,0.00
2013-3-4,61.0,49.7,39.0,47.0,41.7,33.0,100,77,45,0.00,40.00,11,4,20,0.00
2013-3-5,65.0,48.7,35.0,50.0,39.2,29.0,100,77,27,0.00,40.00,8,3,18,0.00
2013-3-6,57.0,46.2,36.0,45.0,40.0,35.0,100,81,48,0.00,40.00,12,5,21,0.00
2013-3-7,51.0,43.4,34.0,46.0,39.5,34.0,100,87,57,0.00,40.00,11,4,21,0.00
2013-3-8,43.0,38.2,34.0,43.0,37.9,34.0,100,99,92,0.00,40.00,14,6,29,0.00
2013-3-9,48.0,40.3,34.0,41.0,39.0,33.0,100,96,72,0.00,40.00,13,6,24,0.00
2013-3-10,65.0,46.8,31.0,39.0,29.4,12.0,100,62,13,0.00,40.00,8,3,17,0.00
2013-3-11,71.0,49.8,27.0,37.0,28.2,15.0,95,53,13,0.00,40.00,9,3,14,0.00
2013-3-12,76.0,55.0,32.0,34.0,24.6,16.0,90,43,12,0.00,40.00,12,5,25,0.00
2013-3-13,83.0,61.9,40.0,42.0,27.9,19.0,63,33,10,0.00,40.00,12,4,24,0.00
2013-3-14,83.0,61.0,38.0,42.0,30.1,19.0,80,41,10,0.00,40.00,10,4,18,0.00
2013-3-15,79.0,59.5,40.0,43.0,34.2,26.0,87,46,14,0.00,40.00,10,4,16,0.00
2013-3-16,72.0,54.0,37.0,45.0,33.4,15.0,98,54,14,0.00,40.00,12,4,20,0.00
2013-3-17,72.0,51.5,32.0,51.0,39.8,29.0,100,73,23,0.00,40.00,11,4,18,0.00
2013-3-18,66.0,49.7,32.0,49.0,39.3,26.0,100,74,23,0.00,40.00,10,3,17,0.00
2013-3-19,70.0,52.3,34.0,46.0,37.2,29.0,100,66,22,0.00,40.00,12,4,23,0.00
2013-3-20,72.0,55.0,40.0,42.0,38.4,28.0,94,59,20,0.00,40.00,11,4,18,0.00
2013-3-21,62.0,50.6,40.0,48.0,41.4,37.0,100,74,42,0.00,40.00,10,4,17,0.00
2013-3-22,66.0,48.6,33.0,51.0,42.2,33.0,100,83,41,0.00,40.00,10,4,17,0.00
2013-3-23,70.0,50.6,29.0,46.0,27.8,12.0,100,57,12,0.00,40.00,12,4,23,0.00
2013-3-24,72.0,53.4,33.0,46.0,35.1,22.0,98,58,16,0.00,40.00,9,3,17,0.00
2013-3-25,76.0,55.9,36.0,43.0,35.7,21.0,94,56,14,0.00,40.00,10,3,18,0.00
2013-3-26,69.0,52.1,36.0,42.0,32.7,19.0,97,56,15,0.00,40.00,10,4,18,0.00
2013-3-27,67.0,51.5,38.0,40.0,31.8,25.0,88,51,23,0.00,40.00,11,4,19,0.00
2013-3-28,71.0,55.0,35.0,46.0,37.9,31.0,100,60,23,0.00,40.00,11,4,21,0.00
2013-3-29,73.0,55.9,37.0,51.0,40.2,29.0,100,64,20,0.00,40.00,10,3,17,0.00
2013-3-30,70.0,57.3,43.0,52.0,44.5,-99.9,100,70,29,0.00,40.00,11,4,20,0.00
2013-3-31,63.0,50.5,36.0,49.0,42.8,35.0,100,79,36,0.00,40.00,11,5,20,0.00
2013-4-1,60.0,49.4,38.0,47.0,42.3,36.0,100,80,46,0.00,40.00,13,5,22,0.00
2013-4-2,65.0,52.4,46.0,51.0,46.6,43.0,100,83,50,0.00,40.00,11,6,17,0.00
2013-4-3,78.0,57.1,36.0,47.0,35.3,22.0,100,57,13,0.00,40.00,11,3,18,0.00
2013-4-4,72.0,56.3,38.0,46.0,35.4,26.0,87,51,19,0.00,40.00,11,4,20,0.00
2013-4-5,66.0,54.7,48.0,51.0,47.8,38.0,100,80,35,0.00,40.00,10,6,19,0.00
2013-4-6,66.0,52.8,43.0,53.0,47.3,43.0,100,85,45,0.00,40.00,11,5,20,0.00
2013-4-7,67.0,52.8,36.0,52.0,45.8,36.0,100,81,42,0.00,40.00,10,4,17,0.00
2013-4-8,49.0,44.3,40.0,49.0,43.6,40.0,100,98,78,0.00,40.00,14,8,27,0.00
2013-4-9,60.0,48.2,39.0,43.0,34.8,25.0,100,66,28,0.00,40.00,14,5,22,0.00
2013-4-10,71.0,54.4,34.0,27.0,20.2,10.0,60,30,10,0.00,40.00,11,4,24,0.00
2013-4-11,71.0,54.8,35.0,43.0,28.3,15.0,88,42,14,0.00,40.00,11,5,19,0.00
2013-4-12,77.0,55.2,35.0,51.0,34.8,17.0,97,60,11,0.00,40.00,9,3,19,0.00
2013-4-13,72.0,56.5,39.0,51.0,38.9,28.0,100,57,21,0.00,40.00,12,4,19,0.00
2013-4-14,60.0,47.8,33.0,48.0,42.9,33.0,100,85,54,0.00,40.00,11,5,18,0.00
2013-4-15,50.0,46.2,44.0,49.0,45.8,43.0,100,99,89,0.00,40.00,9,5,20,0.00
2013-4-16,50.0,43.0,37.0,43.0,37.3,31.0,100,82,50,0.00,40.00,11,7,22,0.00
2013-4-17,63.0,48.0,32.0,40.0,24.8,6.0,100,52,11,0.00,40.00,12,4,21,0.00
2013-4-18,67.0,51.0,29.0,19.0,10.0,5.0,49,22,9,0.00,40.00,12,6,24,0.00
2013-4-19,76.0,58.1,35.0,22.0,10.0,3.0,51,18,6,0.00,40.00,11,5,23,0.00
2013-4-20,81.0,60.0,33.0,32.0,20.4,12.0,54,27,8,0.00,40.00,9,4,24,0.00
2013-4-21,80.0,61.5,38.0,36.0,28.6,18.0,72,36,10,0.00,40.00,9,4,18,0.00
2013-4-22,75.0,57.3,35.0,48.0,32.7,18.0,97,46,13,0.00,40.00,11,4,19,0.00
2013-4-23,78.0,57.2,34.0,50.0,34.0,18.0,100,57,11,0.00,40.00,12,4,23,0.00
2013-4-24,68.0,54.2,45.0,52.0,47.4,40.0,100,81,36,0.00,40.00,13,6,23,0.00
2013-4-25,65.0,52.2,44.0,49.0,45.0,41.0,100,80,42,0.00,40.00,10,6,18,0.00
2013-4-26,77.0,56.5,34.0,48.0,40.8,32.0,100,65,19,0.00,40.00,11,4,20,0.00
2013-4-27,83.0,64.0,42.0,46.0,31.3,19.0,92,36,10,0.00,40.00,12,4,22,0.00
2013-4-28,86.0,67.3,46.0,46.0,31.0,23.0,74,31,11,0.00,40.00,12,4,21,0.00
2013-4-29,81.0,63.5,40.0,46.0,33.6,25.0,82,40,13,0.00,40.00,11,4,19,0.00
2013-4-30,73.0,59.8,38.0,52.0,38.9,21.0,100,52,16,0.00,40.00,9,4,17,0.00
2013-5-1,81.0,62.0,36.0,51.0,29.4,10.0,100,49,8,0.00,40.00,13,4,23,0.00
2013-5-2,77.0,68.1,53.0,26.0,-0.9,-7.0,30,7,4,0.00,40.00,16,10,33,0.00
2013-5-3,83.0,65.7,45.0,26.0,10.3,0.0,29,13,5,0.00,40.00,11,5,23,0.00
2013-5-4,76.0,59.4,37.0,37.0,22.8,10.0,68,28,8,0.00,40.00,12,4,22,0.00
2013-5-5,61.0,48.8,38.0,51.0,43.0,31.0,100,82,47,0.00,40.00,11,4,21,0.00
2013-5-6,53.0,50.0,48.0,53.0,49.8,48.0,100,100,96,0.00,40.00,13,6,22,0.00
2013-5-7,54.0,49.9,47.0,50.0,46.6,42.0,100,89,66,0.00,40.00,12,7,22,0.00
2013-5-8,59.0,48.7,40.0,52.0,46.0,40.0,100,91,64,0.00,40.00,11,4,19,0.00
2013-5-9,64.0,53.2,43.0,54.0,49.4,43.0,100,88,62,0.00,40.00,11,6,22,0.00
2013-5-10,76.0,60.6,46.0,53.0,43.9,-99.9,100,64,20,0.00,40.00,11,4,20,0.00
2013-5-11,86.0,69.9,49.0,49.0,34.9,-99.9,86,36,11,0.00,40.00,10,4,20,0.00
2013-5-12,89.0,73.5,50.0,45.0,30.2,21.0,59,25,9,0.00,40.00,11,4,25,0.00
2013-5-13,92.0,73.8,52.0,42.0,34.0,24.0,54,28,9,0.00,40.00,9,3,21,0.00
2013-5-14,86.0,69.6,51.0,44.0,32.3,15.0,68,32,8,0.00,40.00,13,5,19,0.00
2013-5-15,77.0,60.4,39.0,52.0,36.1,23.0,91,46,17,0.00,40.00,11,4,23,0.00
2013-5-16,75.0,54.6,41.0,51.0,24.9,-99.9,99,59,17,0.00,40.00,9,4,17,0.00
2013-5-17,68.0,54.6,44.0,53.0,44.4,-99.9,100,79,42,0.00,40.00,12,5,22,0.00
2013-5-18,70.0,57.8,48.0,52.0,48.3,42.0,100,75,39,0.00,40.00,11,5,19,0.00
2013-5-19,77.0,58.9,39.0,51.0,45.3,39.0,100,67,30,0.00,40.00,10,4,19,0.00
2013-5-20,85.0,66.9,45.0,49.0,36.7,22.0,100,47,11,0.00,40.00,12,4,25,0.00
2013-5-21,82.0,66.8,47.0,53.0,39.1,27.0,90,41,14,0.00,40.00,10,4,20,0.00
2013-5-22,75.0,59.3,41.0,50.0,36.7,12.0,100,54,10,0.00,40.00,11,4,21,0.00
2013-5-23,69.0,54.1,40.0,50.0,39.6,24.0,100,67,24,0.00,40.00,12,5,21,0.00
2013-5-24,71.0,54.0,31.0,44.0,34.0,13.0,100,55,13,0.00,40.00,9,4,18,0.00
2013-5-25,71.0,54.4,33.0,51.0,32.8,11.0,100,52,13,0.00,40.00,10,4,18,0.00
2013-5-26,70.0,53.9,34.0,48.0,37.1,27.0,100,60,24,0.00,40.00,10,4,17,0.00
2013-5-27,73.0,57.3,41.0,50.0,42.0,36.0,98,62,27,0.00,40.00,12,5,20,0.00
2013-5-28,70.0,57.6,44.0,56.0,48.4,42.0,100,75,38,0.00,40.00,13,6,23,0.00
2013-5-29,80.0,66.3,50.0,53.0,45.4,38.0,98,52,22,0.00,40.00,12,5,21,0.00
2013-5-30,81.0,64.5,43.0,53.0,45.3,39.0,100,57,25,0.00,40.00,9,4,17,0.00
2013-5-31,88.0,67.0,43.0,54.0,44.8,35.0,96,53,19,0.00,40.00,10,4,17,0.00
2013-6-1,95.0,73.6,51.0,54.0,42.3,26.0,88,44,9,0.00,40.00,11,4,21,0.00
2013-6-2,85.0,69.1,49.0,49.0,38.3,29.0,78,38,14,0.00,40.00,9,4,17,0.00
2013-6-3,80.0,63.6,44.0,54.0,42.0,30.0,94,51,19,0.00,40.00,10,4,16,0.00
2013-6-4,79.0,62.0,40.0,54.0,40.4,23.0,99,54,16,0.00,40.00,9,4,17,0.00
2013-6-5,83.0,62.3,39.0,55.0,43.5,30.0,100,60,18,0.00,40.00,12,5,21,0.00
2013-6-6,84.0,63.8,41.0,55.0,45.0,34.0,100,61,17,0.00,40.00,12,5,21,0.00
2013-6-7,85.0,66.2,44.0,54.0,48.4,40.0,100,61,25,0.00,40.00,11,4,18,0.00
2013-6-8,86.0,68.6,48.0,53.0,47.4,40.0,99,54,22,0.00,40.00,10,4,16,0.00
2013-6-9,86.0,68.9,45.0,49.0,30.1,6.0,74,29,5,0.00,40.00,12,4,19,0.00
2013-6-10,81.0,73.2,56.0,50.0,35.6,14.0,73,31,9,0.00,40.00,10,6,20,0.00
2013-6-11,90.0,70.4,47.0,54.0,38.0,18.0,74,37,8,0.00,40.00,11,4,17,0.00
2013-6-12,83.0,69.6,51.0,54.0,46.3,31.0,85,49,16,0.00,40.00,10,4,16,0.00
2013-6-13,85.0,67.9,43.0,53.0,39.9,25.0,82,43,14,0.00,40.00,12,5,22,0.00
2013-6-14,83.0,64.7,43.0,53.0,40.5,17.0,100,52,9,0.00,40.00,11,4,19,0.00
2013-6-15,82.0,63.7,39.0,47.0,31.0,10.0,85,40,8,0.00,40.00,10,4,18,0.00
2013-6-16,83.0,66.2,34.0,51.0,31.0,8.0,82,35,7,0.00,40.00,11,5,19,0.00
2013-6-17,86.0,68.9,43.0,45.0,35.4,26.0,82,36,13,0.00,40.00,11,5,21,0.00
2013-6-18,83.0,68.9,42.0,51.0,37.4,26.0,86,37,15,0.00,40.00,12,6,22,0.00
2013-6-19,82.0,64.6,42.0,52.0,37.5,17.0,98,48,12,0.00,40.00,12,5,21,0.00
2013-6-20,84.0,62.9,40.0,49.0,35.0,24.0,100,49,13,0.00,40.00,11,4,20,0.00
2013-6-21,81.0,78.8,76.0,41.0,36.8,32.0,25,22,17,0.00,40.00,9,8,16,0.00
2013-6-22,84.0,74.0,54.0,45.0,36.8,25.0,72,29,14,0.00,40.00,11,6,18,0.00
2013-6-23,78.0,65.4,43.0,54.0,41.2,32.0,86,46,23,0.00,40.00,11,5,19,0.00
2013-6-24,76.0,60.7,43.0,57.0,44.1,28.0,98,62,19,0.00,40.00,12,5,21,0.00
2013-6-25,83.0,65.2,49.0,59.0,51.8,46.0,100,68,31,0.00,40.00,13,5,22,0.00
2013-6-26,90.0,75.4,53.0,58.0,51.5,48.0,100,51,24,0.00,40.00,10,5,17,0.00
2013-6-27,93.0,76.8,58.0,55.0,48.8,42.0,84,44,17,0.00,40.00,10,4,16,0.00
2013-6-28,97.0,80.4,57.0,54.0,45.3,36.0,76,35,13,0.00,40.00,12,5,20,0.00
2013-6-29,99.0,88.7,65.0,49.0,39.8,30.0,34,19,11,0.00,40.00,12,6,20,0.00
2013-6-30,102.0,87.6,68.0,51.0,42.8,32.0,46,23,9,0.00,40.00,11,5,19,0.00
2013-7-1,93.0,81.7,66.0,52.0,45.4,40.0,48,30,16,0.00,40.00,10,4,17,0.00
2013-7-2,94.0,79.6,62.0,54.0,46.6,37.0,59,34,14,0.00,40.00,12,5,21,0.00
2013-7-3,90.0,79.7,66.0,51.0,44.8,38.0,47,31,17,0.00,40.00,11,5,18,0.00
2013-7-4,93.0,78.6,62.0,46.0,37.5,25.0,48,25,12,0.00,40.00,13,6,21,0.00
2013-7-5,90.0,75.4,60.0,56.0,46.6,34.0,70,40,15,0.00,40.00,12,5,21,0.00
2013-7-6,88.0,73.0,59.0,60.0,54.4,48.0,88,57,25,0.00,40.00,11,5,20,0.00
2013-7-7,93.0,73.6,57.0,59.0,52.1,43.0,96,55,18,0.00,40.00,10,4,18,0.00
2013-7-8,98.0,77.7,59.0,53.0,43.6,32.0,75,38,12,0.00,40.00,9,3,16,0.00
2013-7-9,96.0,82.4,69.0,50.0,41.8,32.0,39,25,11,0.00,40.00,11,5,20,0.00
2013-7-10,84.0,73.2,68.0,54.0,46.1,-99.9,53,41,28,0.00,40.00,9,4,14,0.00
2013-7-11,79.0,70.9,66.0,63.0,57.0,45.0,87,62,44,0.00,40.00,9,3,17,0.00
2013-7-12,88.0,74.0,63.0,63.0,57.4,50.0,96,63,29,0.00,40.00,11,5,21,0.00
2013-7-13,88.0,75.4,57.0,61.0,52.2,45.0,99,52,24,0.00,40.00,11,5,20,0.00
2013-7-14,91.0,78.0,61.0,54.0,46.5,40.0,75,37,19,0.00,40.00,11,5,18,0.00
2013-7-15,90.0,76.0,58.0,47.0,41.8,34.0,63,33,14,0.00,40.00,12,4,19,0.00
2013-7-16,87.0,76.5,59.0,40.0,29.4,20.0,34,20,9,0.00,40.00,11,6,19,0.00
2013-7-17,91.0,75.5,49.0,39.0,25.0,2.0,38,19,4,0.00,40.00,10,4,16,0.00
2013-7-18,91.0,75.9,52.0,46.0,37.9,23.0,53,28,9,0.00,40.00,11,5,18,0.00
2013-7-19,91.0,76.5,56.0,52.0,41.5,29.0,62,34,12,0.00,40.00,10,4,16,0.00
2013-7-20,85.0,71.2,60.0,67.0,51.1,-99.9,79,52,33,0.00,40.00,9,4,18,0.00
2013-7-21,82.0,69.3,61.0,70.0,63.5,56.0,100,84,47,0.00,40.00,9,2,15,0.00
2013-7-22,80.0,71.0,62.0,71.0,63.9,58.0,100,81,49,0.00,40.00,10,3,17,0.00
2013-7-23,84.0,72.7,60.0,65.0,60.2,56.0,100,69,40,0.00,40.00,11,5,19,0.00
2013-7-24,88.0,73.9,60.0,63.0,58.6,53.0,99,64,31,0.00,40.00,13,5,20,0.00
2013-7-25,91.0,77.9,64.0,62.0,52.0,45.0,89,46,21,0.00,40.00,11,5,18,0.00
2013-7-26,85.0,74.1,65.0,62.0,55.4,42.0,81,55,22,0.00,40.00,8,2,14,0.00
2013-7-27,88.0,73.2,58.0,60.0,52.0,40.0,94,55,20,0.00,40.00,12,4,20,0.00
2013-7-28,84.0,71.5,54.0,56.0,45.3,30.0,93,47,17,0.00,40.00,11,5,19,0.00
2013-7-29,85.0,70.5,51.0,54.0,46.9,39.0,89,49,21,0.00,40.00,10,5,17,0.00
2013-7-30,85.0,70.1,53.0,57.0,50.6,43.0,91,56,27,0.00,40.00,9,3,18,0.00
2013-7-31,86.0,68.2,52.0,57.0,48.0,30.0,96,58,14,0.00,40.00,10,3,20,0.00
2013-8-1,84.0,67.2,48.0,49.0,36.2,23.0,78,37,13,0.00,40.00,9,4,15,0.00
2013-8-2,86.0,68.1,46.0,52.0,40.1,24.0,79,43,12,0.00,40.00,9,4,18,0.00
2013-8-3,85.0,69.1,50.0,54.0,42.8,24.0,86,46,12,0.00,40.00,10,4,18,0.00
2013-8-4,88.0,72.5,50.0,51.0,41.0,24.0,83,39,12,0.00,40.00,11,5,18,0.00
2013-8-5,88.0,72.7,50.0,51.0,40.2,18.0,79,38,8,0.00,40.00,10,5,19,0.00
2013-8-6,87.0,72.8,48.0,51.0,37.9,15.0,83,37,8,0.00,40.00,10,5,18,0.00
2013-8-7,83.0,71.2,47.0,50.0,35.8,18.0,82,33,11,0.00,40.00,11,6,20,0.00
2013-8-8,85.0,68.8,50.0,45.0,33.2,14.0,60,32,8,0.00,40.00,9,4,17,0.00
2013-8-9,82.0,65.3,47.0,50.0,38.0,18.0,79,42,10,0.00,40.00,9,4,17,0.00
2013-8-10,80.0,66.5,44.0,48.0,35.1,19.0,75,37,12,0.00,40.00,11,5,17,0.00
2013-8-11,85.0,69.4,45.0,52.0,39.2,25.0,82,40,13,0.00,40.00,10,5,18,0.00
2013-8-17,94.0,76.6,62.0,47.0,31.0,-99.9,57,24,18,0.00,40.00,11,6,17,0.00
2013-8-18,92.0,82.4,65.0,50.0,44.6,41.0,48,30,17,0.00,40.00,9,6,18,0.00
2013-8-19,86.0,42.9,63.0,52.0,-10.9,-99.9,60,36,25,0.00,40.00,9,5,17,0.00
2013-8-20,92.0,73.9,56.0,53.0,27.0,-99.9,81,29,10,0.00,40.00,9,5,16,0.00
2013-8-21,95.0,77.1,58.0,43.0,37.7,29.0,43,27,11,0.00,40.00,9,4,17,0.00
2013-8-22,94.0,83.8,64.0,44.0,38.1,35.0,43,21,14,0.00,40.00,9,4,16,0.00
2013-8-23,92.0,83.4,63.0,49.0,45.6,41.0,45,28,20,0.00,40.00,9,4,15,0.00
2013-11-13,80.0,71.6,56.0,27.0,23.0,20.0,33,17,12,0.00,40.00,8,6,16,0.00
2013-11-14,79.0,67.1,56.0,29.0,24.7,18.0,31,22,11,0.00,40.00,7,3,14,0.00
2013-11-15,53.0,51.0,48.0,50.0,49.5,48.0,100,94,90,0.00,40.00,9,7,15,0.00
2013-11-16,49.0,37.8,46.0,48.0,16.4,-99.9,100,75,82,0.00,40.00,6,5,11,0.00
2013-11-17,59.0,48.2,39.0,46.0,42.2,39.0,100,83,50,0.00,40.00,8,2,12,0.00
2013-11-18,61.0,44.0,32.0,49.0,40.0,32.0,100,88,55,0.00,40.00,8,3,13,0.00
2013-11-19,54.0,50.4,48.0,49.0,48.3,47.0,100,93,77,0.00,40.00,8,5,13,0.00
2013-12-26,61.0,57.7,56.0,2.0,1.3,0.0,11,10,9,0.00,40.00,11,9,24,0.00
2013-12-27,68.0,63.0,58.0,7.0,3.5,0.0,9,9,9,0.00,40.00,9,8,18,0.00
2013-12-28,62.0,40.3,59.0,10.0,-27.0,-99.9,14,9,12,0.00,40.00,6,5,11,0.00
2013-12-29,43.0,43.0,43.0,12.0,12.0,12.0,28,28,28,0.00,40.00,3,3,7,0.00
2013-12-31,64.0,59.0,54.0,14.0,11.0,8.0,20,16,11,0.00,40.00,5,4,9,0.00
2014-1-1,70.0,55.7,35.0,14.0,10.3,6.0,42,21,8,0.00,40.00,12,7,20,0.00